createdAt,value
2022-12-21T00:02:22.325Z,-5.10
2022-12-21T00:12:27.583Z,-5.40
2022-12-21T00:22:31.412Z,-5.50
2022-12-21T00:32:37.635Z,-5.60
2022-12-21T00:42:41.406Z,-5.80
2022-12-21T00:52:46.709Z,-5.90
2022-12-21T01:02:50.889Z,-5.80
2022-12-21T01:12:56.649Z,-5.70
2022-12-21T01:23:00.525Z,-5.40
2022-12-21T01:33:05.625Z,-5.20
2022-12-21T01:43:19.832Z,-4.90
2022-12-21T01:53:30.412Z,-4.60
2022-12-21T02:03:50.905Z,-4.20
2022-12-21T02:13:56.109Z,-4.00
2022-12-21T02:24:55.182Z,-3.80
2022-12-21T02:35:11.392Z,-3.80
2022-12-21T02:45:25.463Z,-3.80
2022-12-21T02:55:30.761Z,-3.80
2022-12-21T03:05:54.167Z,-3.60
2022-12-21T03:16:06.388Z,-3.50
2022-12-21T03:26:17.577Z,-3.50
2022-12-21T03:36:29.850Z,-3.70
2022-12-21T03:46:39.638Z,-4.40
2022-12-21T03:56:45.408Z,-4.90
2022-12-21T04:06:51.304Z,-5.30
2022-12-21T04:16:56.530Z,-5.50
2022-12-21T04:27:26.398Z,-5.90
2022-12-21T04:37:35.483Z,-6.10
2022-12-21T04:47:39.260Z,-6.20
2022-12-21T04:57:44.415Z,-6.40
2022-12-21T05:07:48.168Z,-6.50
2022-12-21T05:17:53.383Z,-6.70
2022-12-21T05:27:57.052Z,-6.80
2022-12-21T05:38:02.294Z,-6.80
2022-12-21T05:48:06.384Z,-6.80
2022-12-21T05:58:12.061Z,-6.80
2022-12-21T06:08:16.399Z,-6.60
2022-12-21T06:18:21.589Z,-6.10
2022-12-21T06:28:27.869Z,-6.00
2022-12-21T06:38:34.087Z,-6.00
2022-12-21T06:48:39.718Z,-5.70
2022-12-21T06:58:45.247Z,-5.60
2022-12-21T07:08:49.864Z,-5.40
2022-12-21T07:18:55.502Z,-5.10
2022-12-21T07:28:59.272Z,-4.70
2022-12-21T07:39:04.411Z,-4.00
2022-12-21T07:49:08.238Z,-3.40
2022-12-21T07:59:13.509Z,-1.60
2022-12-21T08:09:17.588Z,-0.50
2022-12-21T08:19:22.735Z,-1.00
2022-12-21T08:29:27.583Z,-0.90
2022-12-21T08:39:32.835Z,-0.50
2022-12-21T08:49:36.574Z,-0.10
2022-12-21T08:59:46.570Z,0.20
2022-12-21T09:09:52.346Z,0.60
2022-12-21T09:19:57.414Z,1.10
2022-12-21T09:30:01.041Z,0.70
2022-12-21T09:40:09.387Z,0.40
2022-12-21T09:50:21.356Z,0.40
2022-12-21T10:00:27.754Z,0.30
2022-12-21T10:10:37.929Z,0.90
2022-12-21T10:20:58.086Z,1.80
2022-12-21T10:31:07.295Z,2.00
2022-12-21T10:41:18.001Z,2.20
2022-12-21T10:51:30.304Z,2.20
2022-12-21T11:01:36.024Z,2.30
2022-12-21T11:11:40.655Z,2.20
2022-12-21T11:21:50.783Z,2.20
2022-12-21T11:31:56.746Z,2.20
2022-12-21T11:42:02.000Z,2.60
2022-12-21T11:52:15.401Z,2.80
2022-12-21T12:02:55.064Z,2.90
2022-12-21T12:13:10.511Z,3.10
2022-12-21T12:23:26.109Z,2.90
2022-12-21T12:33:46.192Z,2.40
2022-12-21T12:43:59.718Z,2.00
2022-12-21T12:54:13.032Z,1.70
2022-12-21T13:04:47.619Z,1.60
2022-12-21T13:14:58.066Z,1.60
2022-12-21T13:25:08.426Z,1.50
2022-12-21T13:35:23.192Z,1.50
2022-12-21T13:45:42.126Z,1.40
2022-12-21T13:55:55.460Z,1.30
2022-12-21T14:06:26.561Z,1.20
2022-12-21T14:16:34.375Z,1.10
2022-12-21T14:26:46.085Z,1.10
2022-12-21T14:37:27.244Z,1.00
2022-12-21T14:47:32.211Z,0.90
2022-12-21T14:57:40.935Z,0.80
2022-12-21T15:07:51.963Z,0.80
2022-12-21T15:18:24.920Z,0.70
2022-12-21T15:28:26.367Z,0.70
2022-12-21T15:38:38.778Z,0.60
2022-12-21T15:48:49.750Z,0.70
2022-12-21T15:58:54.137Z,0.60
2022-12-21T16:08:59.452Z,0.60
2022-12-21T16:19:22.448Z,0.60
2022-12-21T16:29:29.873Z,0.60
2022-12-21T16:39:34.593Z,0.60
2022-12-21T16:49:40.370Z,0.60
2022-12-21T16:59:45.745Z,0.50
2022-12-21T17:09:55.075Z,0.50
2022-12-21T17:20:17.418Z,0.50
2022-12-21T17:30:25.945Z,0.60
2022-12-21T17:40:30.074Z,0.60
2022-12-21T17:50:38.936Z,0.50
2022-12-21T18:00:44.674Z,0.50
2022-12-21T18:10:50.680Z,0.50
2022-12-21T18:20:55.345Z,0.50
2022-12-21T18:31:03.968Z,0.30
2022-12-21T18:41:09.849Z,0.20
2022-12-21T18:51:27.989Z,0.30
2022-12-21T19:01:35.803Z,0.30
2022-12-21T19:11:41.154Z,0.30
2022-12-21T19:21:45.799Z,0.20
2022-12-21T19:31:51.735Z,0.10
2022-12-21T19:41:56.105Z,0.10
2022-12-21T19:52:01.698Z,0.00
2022-12-21T20:02:21.615Z,0.10
2022-12-21T20:12:27.322Z,0.00
2022-12-21T20:22:31.176Z,0.00
2022-12-21T20:32:36.956Z,0.00
2022-12-21T20:42:58.005Z,0.00
2022-12-21T20:53:06.517Z,-0.10
2022-12-21T21:03:33.085Z,-0.10
2022-12-21T21:13:38.493Z,0.00
2022-12-21T21:23:42.468Z,0.10
2022-12-21T21:33:47.809Z,0.10
2022-12-21T21:43:51.677Z,0.10
2022-12-21T21:53:57.360Z,0.10
2022-12-21T22:04:01.105Z,0.00
2022-12-21T22:14:06.278Z,0.10
2022-12-21T22:24:29.812Z,0.10
2022-12-21T22:34:58.421Z,0.10
2022-12-21T22:45:23.355Z,0.20
2022-12-21T22:55:32.729Z,0.10
2022-12-21T23:05:36.748Z,0.10
2022-12-21T23:15:42.331Z,0.00
2022-12-21T23:26:07.381Z,0.10
2022-12-21T23:36:37.250Z,0.10
2022-12-21T23:46:58.261Z,0.10
2022-12-21T23:57:21.681Z,0.20
